Time;durP1;ratioP1;P1;durP2;ratioP2;P2;SDS_P1;SDS_P2;PMS_P1;PMS_P2;Temp;Humidity;BMP_temperature;BMP_pressure;BME280_temperature;BME280_humidity;BME280_pressure;Samples;Min_cycle;Max_cycle;Signal;HPM_P1;HPM_P2
2023/04/28 00:00:27;;;;;;;6.45;1.48;;;;;;;;;;5043387;28;20037;-69
2023/04/28 00:02:53;;;;;;;6.10;1.55;;;;;;;;;;5047878;28;20028;-69
2023/04/28 00:05:22;;;;;;;6.95;1.60;;;;;;;;;;5049799;28;20035;-69
2023/04/28 00:07:48;;;;;;;6.32;1.65;;;;;;;;;;5040045;28;20067;-69
2023/04/28 00:10:14;;;;;;;6.93;1.40;;;;;;;;;;5025857;28;20036;-68
2023/04/28 00:12:41;;;;;;;5.82;1.88;;;;;;;;;;5028472;28;20068;-69
2023/04/28 00:15:08;;;;;;;4.97;1.70;;;;;;;;;;5042683;28;20546;-69
2023/04/28 00:17:34;;;;;;;5.55;1.77;;;;;;;;;;5044468;28;20024;-70
2023/04/28 00:20:00;;;;;;;5.82;1.73;;;;;;;;;;5056467;28;20032;-69
2023/04/28 00:22:26;;;;;;;5.28;1.55;;;;;;;;;;5022410;28;20056;-69
2023/04/28 00:24:52;;;;;;;6.60;1.52;;;;;;;;;;5033343;28;20055;-69
2023/04/28 00:27:19;;;;;;;5.57;1.80;;;;;;;;;;5028776;28;20348;-69
2023/04/28 00:29:46;;;;;;;5.82;1.70;;;;;;;;;;5023290;28;20071;-69
2023/04/28 00:32:12;;;;;;;8.02;2.10;;;;;;;;;;5047406;28;20032;-69
2023/04/28 00:34:38;;;;;;;6.05;2.08;;;;;;;;;;5042645;28;20037;-69
2023/04/28 00:37:04;;;;;;;8.75;2.10;;;;;;;;;;5045938;28;20024;-69
2023/04/28 00:39:30;;;;;;;8.52;2.05;;;;;;;;;;5027060;28;20825;-69
2023/04/28 00:41:57;;;;;;;7.85;2.60;;;;;;;;;;5046981;28;20044;-69
2023/04/28 00:44:23;;;;;;;7.55;2.70;;;;;;;;;;5029439;28;20035;-69
2023/04/28 00:46:49;;;;;;;7.47;2.40;;;;;;;;;;5041800;28;20044;-69
2023/04/28 00:49:16;;;;;;;6.95;2.50;;;;;;;;;;5045648;28;20735;-69
2023/04/28 00:51:42;;;;;;;7.50;2.28;;;;;;;;;;5022152;28;20304;-69
2023/04/28 00:54:09;;;;;;;6.50;2.22;;;;;;;;;;5043529;28;20398;-69
2023/04/28 00:56:35;;;;;;;12.27;2.20;;;;;;;;;;5040200;28;20359;-69
2023/04/28 00:59:02;;;;;;;10.50;2.00;;;;;;;;;;5044932;28;20053;-69
2023/04/28 01:01:28;;;;;;;5.57;1.50;;;;;;;;;;5023508;28;20029;-69
2023/04/28 01:03:55;;;;;;;4.85;1.45;;;;;;;;;;5045719;28;20299;-69
2023/04/28 01:06:22;;;;;;;4.80;1.50;;;;;;;;;;5026069;28;20036;-68
2023/04/28 01:08:52;;;;;;;5.45;1.42;;;;;;;;;;5038050;28;20502;-69
2023/04/28 01:11:18;;;;;;;4.78;1.60;;;;;;;;;;5042290;28;20138;-68
2023/04/28 01:13:44;;;;;;;9.77;2.10;;;;;;;;;;5036048;28;20016;-69
2023/04/28 01:16:10;;;;;;;7.47;2.00;;;;;;;;;;5047800;28;20505;-68
2023/04/28 01:18:37;;;;;;;8.10;2.20;;;;;;;;;;5023898;28;20051;-70
2023/04/28 01:21:03;;;;;;;7.80;2.05;;;;;;;;;;5039391;28;20148;-69
2023/04/28 01:23:29;;;;;;;6.97;2.28;;;;;;;;;;5041510;28;20032;-69
2023/04/28 01:25:57;;;;;;;7.13;2.20;;;;;;;;;;5044016;28;20466;-68
2023/04/28 01:28:23;;;;;;;7.80;2.63;;;;;;;;;;5040294;28;20152;-68
2023/04/28 01:30:49;;;;;;;5.88;2.10;;;;;;;;;;5016020;28;20083;-68
2023/04/28 01:33:15;;;;;;;6.07;1.88;;;;;;;;;;5043863;28;20056;-68
2023/04/28 01:35:41;;;;;;;6.32;1.90;;;;;;;;;;5040547;28;20490;-68
2023/04/28 01:38:07;;;;;;;4.95;1.60;;;;;;;;;;5028925;28;20108;-70
2023/04/28 01:40:33;;;;;;;4.55;1.25;;;;;;;;;;5034528;28;20035;-70
2023/04/28 01:42:59;;;;;;;6.85;1.50;;;;;;;;;;5039443;28;20032;-68
2023/04/28 01:45:26;;;;;;;5.55;1.40;;;;;;;;;;5042336;28;20029;-67
2023/04/28 01:47:52;;;;;;;5.03;1.42;;;;;;;;;;5037204;28;20380;-69
2023/04/28 01:50:18;;;;;;;7.10;1.33;;;;;;;;;;5047502;28;20394;-70
2023/04/28 01:52:44;;;;;;;5.72;1.50;;;;;;;;;;5037523;28;20265;-69
2023/04/28 01:55:10;;;;;;;4.85;1.40;;;;;;;;;;5029832;28;20016;-68
2023/04/28 01:57:36;;;;;;;4.90;1.40;;;;;;;;;;5019590;28;20032;-68
2023/04/28 02:00:03;;;;;;;4.88;1.50;;;;;;;;;;5037105;28;20044;-69
2023/04/28 02:02:30;;;;;;;4.93;1.50;;;;;;;;;;5041396;28;20063;-68
2023/04/28 02:04:56;;;;;;;4.20;1.25;;;;;;;;;;5026242;28;20105;-68
2023/04/28 02:07:23;;;;;;;5.00;1.40;;;;;;;;;;5026164;28;20040;-68
2023/04/28 02:09:49;;;;;;;5.32;1.40;;;;;;;;;;5039412;28;20359;-68
2023/04/28 02:12:16;;;;;;;5.03;1.52;;;;;;;;;;5040803;28;20035;-68
2023/04/28 02:14:42;;;;;;;5.50;1.60;;;;;;;;;;5036973;28;20314;-68
2023/04/28 02:17:08;;;;;;;6.70;1.83;;;;;;;;;;5024650;28;20156;-68
2023/04/28 02:19:34;;;;;;;8.02;2.17;;;;;;;;;;5025846;28;20148;-68
2023/04/28 02:22:00;;;;;;;7.00;1.83;;;;;;;;;;5043516;28;20067;-68
2023/04/28 02:24:26;;;;;;;7.47;2.10;;;;;;;;;;5044045;28;20029;-68
2023/04/28 02:26:52;;;;;;;7.60;2.13;;;;;;;;;;5045858;28;20029;-68
2023/04/28 02:29:19;;;;;;;6.68;2.00;;;;;;;;;;5042969;28;20144;-70
2023/04/28 02:31:45;;;;;;;7.95;2.35;;;;;;;;;;5043436;28;21692;-70
2023/04/28 02:34:11;;;;;;;8.25;2.25;;;;;;;;;;5042280;28;20033;-68
2023/04/28 02:36:38;;;;;;;9.45;2.58;;;;;;;;;;5045120;28;20439;-69
2023/04/28 02:39:05;;;;;;;7.47;2.40;;;;;;;;;;5045052;28;20240;-69
2023/04/28 02:41:33;;;;;;;8.75;2.10;;;;;;;;;;5038465;28;20040;-68
2023/04/28 02:43:59;;;;;;;8.48;2.00;;;;;;;;;;5040708;28;20389;-69
2023/04/28 02:46:25;;;;;;;;;;;;;;;;;;5038178;28;20037;-69
2023/04/28 02:48:51;;;;;;;7.25;2.30;;;;;;;;;;5020194;28;19912;-69
2023/04/28 02:51:17;;;;;;;8.05;2.40;;;;;;;;;;5038119;28;20636;-69
2023/04/28 02:53:43;;;;;;;;;;;;;;;;;;5040086;28;20364;-69
2023/04/28 02:56:09;;;;;;;6.70;2.17;;;;;;;;;;5024361;28;20007;-68
2023/04/28 02:58:36;;;;;;;7.68;1.85;;;;;;;;;;5025569;28;20151;-69
2023/04/28 03:01:02;;;;;;;7.35;1.85;;;;;;;;;;5042045;28;20032;-70
2023/04/28 03:03:28;;;;;;;6.30;1.90;;;;;;;;;;5036183;28;20032;-69
2023/04/28 03:05:55;;;;;;;7.40;2.10;;;;;;;;;;5041177;28;20033;-68
2023/04/28 03:08:21;;;;;;;5.88;2.00;;;;;;;;;;5040758;28;20191;-68
2023/04/28 03:10:48;;;;;;;6.93;2.10;;;;;;;;;;5039735;28;21146;-68
2023/04/28 03:13:14;;;;;;;8.98;2.25;;;;;;;;;;5022895;28;20035;-68
2023/04/28 03:15:40;;;;;;;7.55;2.00;;;;;;;;;;5036297;28;20024;-69
2023/04/28 03:18:06;;;;;;;7.88;1.92;;;;;;;;;;5038880;28;20059;-69
2023/04/28 03:20:32;;;;;;;;;;;;;;;;;;5021978;28;20037;-69
2023/04/28 03:22:58;;;;;;;6.05;1.70;;;;;;;;;;5037408;28;20254;-69
2023/04/28 03:25:24;;;;;;;5.93;1.73;;;;;;;;;;5041652;28;20024;-69
2023/04/28 03:27:51;;;;;;;5.85;1.65;;;;;;;;;;5027946;28;20210;-69
2023/04/28 03:30:17;;;;;;;6.07;1.50;;;;;;;;;;5042456;28;20028;-69
2023/04/28 03:32:43;;;;;;;8.57;1.73;;;;;;;;;;5038241;28;20047;-69
2023/04/28 03:35:09;;;;;;;5.32;1.45;;;;;;;;;;5026687;28;20107;-69
2023/04/28 03:37:35;;;;;;;7.00;1.70;;;;;;;;;;5040368;28;20033;-69
2023/04/28 03:40:02;;;;;;;;;;;;;;;;;;5039867;28;20495;-69
2023/04/28 03:42:28;;;;;;;;;;;;;;;;;;5041774;28;19912;-69
2023/04/28 03:44:55;;;;;;;7.57;1.80;;;;;;;;;;5023753;28;19909;-71
2023/04/28 03:47:21;;;;;;;5.50;1.77;;;;;;;;;;5023911;28;20811;-69
2023/04/28 03:49:47;;;;;;;4.18;1.17;;;;;;;;;;5038811;28;20108;-69
2023/04/28 03:52:13;;;;;;;6.78;1.67;;;;;;;;;;5027701;28;20410;-69
2023/04/28 03:54:40;;;;;;;7.43;1.80;;;;;;;;;;5034837;28;20723;-69
2023/04/28 03:57:06;;;;;;;6.00;1.63;;;;;;;;;;5040829;28;20020;-69
2023/04/28 03:59:32;;;;;;;7.43;1.42;;;;;;;;;;5039916;28;20028;-71
2023/04/28 04:01:58;;;;;;;4.15;1.40;;;;;;;;;;5026373;28;20065;-69
2023/04/28 04:04:25;;;;;;;4.03;1.40;;;;;;;;;;5025371;28;20337;-69
2023/04/28 04:06:51;;;;;;;7.05;1.40;;;;;;;;;;5041905;28;20048;-69
2023/04/28 04:09:18;;;;;;;6.63;1.48;;;;;;;;;;5022938;28;20032;-69
2023/04/28 04:11:44;;;;;;;7.20;1.65;;;;;;;;;;5037829;28;20050;-69
2023/04/28 04:14:10;;;;;;;5.03;1.45;;;;;;;;;;5044483;28;20021;-70
2023/04/28 04:16:36;;;;;;;5.60;1.35;;;;;;;;;;5039454;28;20029;-69
2023/04/28 04:19:02;;;;;;;4.78;1.38;;;;;;;;;;5032697;28;20020;-69
2023/04/28 04:21:28;;;;;;;;;;;;;;;;;;5040664;28;20513;-68
2023/04/28 04:23:54;;;;;;;5.05;1.60;;;;;;;;;;5046239;28;19913;-69
2023/04/28 04:26:20;;;;;;;6.50;1.52;;;;;;;;;;5047947;28;20101;-69
2023/04/28 04:28:47;;;;;;;6.28;1.80;;;;;;;;;;5039861;28;20384;-68
2023/04/28 04:31:14;;;;;;;3.97;1.45;;;;;;;;;;5046786;28;20315;-69
2023/04/28 04:33:40;;;;;;;5.30;1.80;;;;;;;;;;5041272;28;20055;-69
2023/04/28 04:36:06;;;;;;;;;;;;;;;;;;5044405;28;20063;-69
2023/04/28 04:38:32;;;;;;;5.37;1.70;;;;;;;;;;5043218;28;19916;-69
2023/04/28 04:40:58;;;;;;;5.63;1.60;;;;;;;;;;5043725;28;20102;-68
2023/04/28 04:43:24;;;;;;;;;;;;;;;;;;5036178;28;20601;-68
2023/04/28 04:45:50;;;;;;;7.30;2.20;;;;;;;;;;5024380;28;19919;-68
2023/04/28 04:48:17;;;;;;;5.70;1.80;;;;;;;;;;5029793;28;20423;-69
2023/04/28 04:50:43;;;;;;;;;;;;;;;;;;5034907;28;20033;-69
2023/04/28 04:53:09;;;;;;;6.40;2.00;;;;;;;;;;5044234;28;19912;-69
2023/04/28 04:55:35;;;;;;;7.15;1.95;;;;;;;;;;5042884;28;21004;-68
2023/04/28 04:58:01;;;;;;;8.40;2.22;;;;;;;;;;5029678;28;20029;-68
2023/04/28 05:00:28;;;;;;;10.82;2.00;;;;;;;;;;5042461;28;20037;-69
2023/04/28 05:02:54;;;;;;;11.18;2.30;;;;;;;;;;5025804;28;20033;-70
2023/04/28 05:05:20;;;;;;;7.20;2.33;;;;;;;;;;5023496;28;20403;-69
2023/04/28 05:07:46;;;;;;;9.73;2.15;;;;;;;;;;5038101;28;20040;-69
2023/04/28 05:10:12;;;;;;;;;;;;;;;;;;5042837;28;20256;-69
2023/04/28 05:12:38;;;;;;;8.40;1.90;;;;;;;;;;5041960;28;19912;-70
2023/04/28 05:15:06;;;;;;;9.02;2.08;;;;;;;;;;5045516;28;20063;-69
2023/04/28 05:17:32;;;;;;;7.43;2.00;;;;;;;;;;5037882;28;20025;-70
2023/04/28 05:19:58;;;;;;;9.43;2.25;;;;;;;;;;5044227;28;20394;-69
2023/04/28 05:22:27;;;;;;;10.00;2.70;;;;;;;;;;5047248;28;20440;-69
2023/04/28 05:24:53;;;;;;;8.13;2.30;;;;;;;;;;5038817;28;20108;-68
2023/04/28 05:27:20;;;;;;;8.55;2.20;;;;;;;;;;5028862;28;20544;-68
2023/04/28 05:29:46;;;;;;;9.65;2.25;;;;;;;;;;5039381;28;20795;-68
2023/04/28 05:32:12;;;;;;;9.25;2.53;;;;;;;;;;5039472;28;20029;-69
2023/04/28 05:34:38;;;;;;;8.48;2.45;;;;;;;;;;5035685;28;20429;-71
2023/04/28 05:37:04;;;;;;;6.43;1.90;;;;;;;;;;5040385;28;20159;-69
2023/04/28 05:39:30;;;;;;;11.90;2.63;;;;;;;;;;5035802;28;20120;-69
2023/04/28 05:41:57;;;;;;;9.57;2.30;;;;;;;;;;5038326;28;20417;-69
2023/04/28 05:44:23;;;;;;;10.13;2.65;;;;;;;;;;5040323;28;20055;-71
2023/04/28 05:46:50;;;;;;;8.93;3.08;;;;;;;;;;5039934;28;20027;-69
2023/04/28 05:49:16;;;;;;;9.02;2.90;;;;;;;;;;5042277;28;20127;-68
2023/04/28 05:51:43;;;;;;;10.00;3.38;;;;;;;;;;5017357;28;20738;-69
2023/04/28 05:54:09;;;;;;;17.48;3.78;;;;;;;;;;5018654;28;20028;-69
2023/04/28 05:56:35;;;;;;;17.70;3.80;;;;;;;;;;5030543;28;20033;-69
2023/04/28 05:59:03;;;;;;;10.57;2.90;;;;;;;;;;5037066;28;20116;-69
2023/04/28 06:01:30;;;;;;;8.98;2.35;;;;;;;;;;5018419;28;20036;-69
2023/04/28 06:03:57;;;;;;;6.90;1.85;;;;;;;;;;5035947;28;20635;-69
2023/04/28 06:06:23;;;;;;;6.55;1.58;;;;;;;;;;5039854;28;20037;-69
2023/04/28 06:08:50;;;;;;;7.88;1.70;;;;;;;;;;5026022;28;20529;-69
2023/04/28 06:11:18;;;;;;;8.88;2.45;;;;;;;;;;5036515;28;20075;-69
2023/04/28 06:13:44;;;;;;;11.38;2.58;;;;;;;;;;5032756;28;20375;-70
2023/04/28 06:16:10;;;;;;;14.60;2.95;;;;;;;;;;5016427;28;20040;-69
2023/04/28 06:18:36;;;;;;;9.93;2.47;;;;;;;;;;5034394;28;20494;-69
2023/04/28 06:21:02;;;;;;;11.45;3.03;;;;;;;;;;5019565;28;20036;-69
2023/04/28 06:23:29;;;;;;;14.43;2.80;;;;;;;;;;5015613;28;20545;-69
2023/04/28 06:25:55;;;;;;;13.65;3.00;;;;;;;;;;5034301;28;20078;-70
2023/04/28 06:28:21;;;;;;;10.35;2.60;;;;;;;;;;5020396;28;20063;-70
2023/04/28 06:30:47;;;;;;;11.25;1.90;;;;;;;;;;5012825;28;20036;-70
2023/04/28 06:33:13;;;;;;;14.02;7.70;;;;;;;;;;5032982;28;20033;-70
2023/04/28 06:35:39;;;;;;;16.60;7.90;;;;;;;;;;5016390;28;20490;-70
2023/04/28 06:38:06;;;;;;;13.68;6.38;;;;;;;;;;5034924;28;20020;-70
2023/04/28 06:40:32;;;;;;;15.02;6.95;;;;;;;;;;5014678;28;20132;-69
2023/04/28 06:42:58;;;;;;;17.25;8.18;;;;;;;;;;5043035;28;20337;-69
2023/04/28 06:45:24;;;;;;;14.80;6.47;;;;;;;;;;5042773;28;21278;-68
2023/04/28 06:47:51;;;;;;;15.15;6.70;;;;;;;;;;5034348;28;20036;-70
2023/04/28 06:50:17;;;;;;;10.75;4.13;;;;;;;;;;5043836;28;20558;-69
2023/04/28 06:52:43;;;;;;;10.13;3.67;;;;;;;;;;5034937;28;20029;-70
2023/04/28 06:55:09;;;;;;;11.63;3.92;;;;;;;;;;5036306;28;20955;-70
2023/04/28 06:57:36;;;;;;;13.18;4.70;;;;;;;;;;5034610;28;20128;-71
2023/04/28 07:00:03;;;;;;;11.88;4.63;;;;;;;;;;5040079;28;20291;-69
2023/04/28 07:02:29;;;;;;;10.27;4.00;;;;;;;;;;5036111;28;20025;-70
2023/04/28 07:04:55;;;;;;;13.30;3.70;;;;;;;;;;5028736;28;20040;-70
2023/04/28 07:07:21;;;;;;;10.13;3.83;;;;;;;;;;5028271;28;20033;-70
2023/04/28 07:09:48;;;;;;;10.88;3.08;;;;;;;;;;5035663;28;20437;-70
2023/04/28 07:12:14;;;;;;;8.70;2.38;;;;;;;;;;5044628;28;20055;-70
2023/04/28 07:14:40;;;;;;;12.13;2.45;;;;;;;;;;5039031;28;20607;-70
2023/04/28 07:17:06;;;;;;;8.60;2.17;;;;;;;;;;5041326;28;20029;-70
2023/04/28 07:19:32;;;;;;;7.72;2.10;;;;;;;;;;5041431;28;20025;-70
2023/04/28 07:21:58;;;;;;;6.63;1.85;;;;;;;;;;5039905;28;20466;-69
2023/04/28 07:24:26;;;;;;;10.27;2.83;;;;;;;;;;5025459;28;20473;-68
2023/04/28 07:26:52;;;;;;;11.05;3.33;;;;;;;;;;5039223;28;20028;-69
2023/04/28 07:29:18;;;;;;;9.43;2.75;;;;;;;;;;5022543;28;20036;-69
2023/04/28 07:31:44;;;;;;;12.95;3.70;;;;;;;;;;5023273;28;20454;-68
2023/04/28 07:34:10;;;;;;;9.27;2.97;;;;;;;;;;5037882;28;20374;-70
2023/04/28 07:36:36;;;;;;;63.17;5.70;;;;;;;;;;5017786;28;20063;-70
2023/04/28 07:39:02;;;;;;;23.48;3.55;;;;;;;;;;5042563;28;20389;-70
2023/04/28 07:41:29;;;;;;;21.67;3.38;;;;;;;;;;5019683;28;20041;-68
2023/04/28 07:43:55;;;;;;;15.57;3.40;;;;;;;;;;5028460;28;20489;-70
2023/04/28 07:46:21;;;;;;;10.18;2.92;;;;;;;;;;5041842;28;20032;-70
2023/04/28 07:48:47;;;;;;;16.25;3.17;;;;;;;;;;5021297;28;20040;-70
2023/04/28 07:51:13;;;;;;;11.65;2.90;;;;;;;;;;5038919;28;20029;-70
2023/04/28 07:53:40;;;;;;;8.70;2.60;;;;;;;;;;5036699;28;20043;-70
2023/04/28 07:56:06;;;;;;;9.70;2.85;;;;;;;;;;5045178;28;20315;-70
2023/04/28 07:58:32;;;;;;;6.90;2.20;;;;;;;;;;5039036;28;20063;-69
2023/04/28 08:00:58;;;;;;;6.47;1.92;;;;;;;;;;5041822;28;20020;-69
2023/04/28 08:03:25;;;;;;;8.82;2.17;;;;;;;;;;5041887;28;20028;-70
2023/04/28 08:05:51;;;;;;;8.50;1.70;;;;;;;;;;5023286;28;20338;-69
2023/04/28 08:08:17;;;;;;;6.43;1.70;;;;;;;;;;5041371;28;20087;-70
2023/04/28 08:10:44;;;;;;;5.00;1.20;;;;;;;;;;5038931;28;20037;-69
2023/04/28 08:13:10;;;;;;;6.03;1.30;;;;;;;;;;5025679;28;20938;-69
2023/04/28 08:15:36;;;;;;;11.07;1.80;;;;;;;;;;5039348;28;20231;-69
2023/04/28 08:18:02;;;;;;;7.70;1.90;;;;;;;;;;5037463;28;20836;-69
2023/04/28 08:20:29;;;;;;;12.82;3.72;;;;;;;;;;5037769;28;20029;-70
2023/04/28 08:22:55;;;;;;;9.93;3.10;;;;;;;;;;5025959;28;20059;-69
2023/04/28 08:25:21;;;;;;;14.88;2.30;;;;;;;;;;5041586;28;20059;-69
2023/04/28 08:27:47;;;;;;;10.50;1.95;;;;;;;;;;5024035;28;20489;-68
2023/04/28 08:30:14;;;;;;;7.07;1.42;;;;;;;;;;5023954;28;20033;-70
2023/04/28 08:32:40;;;;;;;8.05;2.10;;;;;;;;;;5041133;28;20059;-70
2023/04/28 08:35:06;;;;;;;10.35;2.80;;;;;;;;;;5042894;28;20553;-68
2023/04/28 08:37:33;;;;;;;9.70;1.50;;;;;;;;;;5037654;28;20219;-69
2023/04/28 08:40:08;;;;;;;5.53;1.45;;;;;;;;;;5038808;28;20028;-69
2023/04/28 08:42:34;;;;;;;7.95;1.55;;;;;;;;;;5018538;28;20581;-69
2023/04/28 08:45:01;;;;;;;7.20;1.35;;;;;;;;;;5045685;28;20700;-69
2023/04/28 08:47:38;;;;;;;4.63;1.10;;;;;;;;;;5037497;28;20038;-68
2023/04/28 08:50:05;;;;;;;7.78;1.33;;;;;;;;;;5035524;28;20804;-69
2023/04/28 08:52:32;;;;;;;7.53;1.40;;;;;;;;;;5038996;28;20032;-69
2023/04/28 08:54:59;;;;;;;6.75;1.17;;;;;;;;;;5044503;28;20295;-69
2023/04/28 08:57:30;;;;;;;6.57;1.30;;;;;;;;;;5043844;28;20553;-69
2023/04/28 08:59:58;;;;;;;6.53;1.15;;;;;;;;;;5027766;28;20027;-70
2023/04/28 09:02:24;;;;;;;8.25;1.58;;;;;;;;;;5040661;28;20135;-69
2023/04/28 09:04:50;;;;;;;5.95;1.40;;;;;;;;;;5017035;28;20025;-70
2023/04/28 09:07:16;;;;;;;6.82;1.48;;;;;;;;;;5040606;28;20040;-69
2023/04/28 09:09:44;;;;;;;5.82;1.20;;;;;;;;;;5041479;28;20111;-69
2023/04/28 09:12:10;;;;;;;6.40;1.15;;;;;;;;;;5037394;28;20045;-69
2023/04/28 09:14:37;;;;;;;5.95;1.52;;;;;;;;;;5041808;28;20117;-69
2023/04/28 09:17:08;;;;;;;5.47;1.33;;;;;;;;;;5040797;28;20024;-68
2023/04/28 09:19:35;;;;;;;6.65;1.45;;;;;;;;;;5019525;28;20526;-70
2023/04/28 09:22:02;;;;;;;6.15;1.20;;;;;;;;;;5035150;28;20146;-70
2023/04/28 09:24:35;;;;;;;5.60;1.20;;;;;;;;;;5021765;28;20032;-78
2023/04/28 09:27:06;;;;;;;5.47;1.33;;;;;;;;;;5019337;28;20054;-76
2023/04/28 09:29:33;;;;;;;25.42;2.35;;;;;;;;;;5037229;28;20361;-76
2023/04/28 09:32:15;;;;;;;5.85;1.50;;;;;;;;;;5041208;28;20043;-76
2023/04/28 09:34:44;;;;;;;6.75;1.42;;;;;;;;;;5033738;28;20033;-76
2023/04/28 09:37:20;;;;;;;5.97;1.40;;;;;;;;;;5044060;28;20479;-76
2023/04/28 09:39:50;;;;;;;8.88;1.80;;;;;;;;;;5031869;28;20136;-75
2023/04/28 09:42:35;;;;;;;5.82;1.67;;;;;;;;;;5045061;28;20032;-77
2023/04/28 09:45:05;;;;;;;11.10;2.10;;;;;;;;;;5042532;28;20028;-76
2023/04/28 09:47:33;;;;;;;7.18;1.60;;;;;;;;;;5023168;28;20143;-76
2023/04/28 09:50:00;;;;;;;7.57;1.65;;;;;;;;;;5039695;28;20601;-77
2023/04/28 09:52:26;;;;;;;5.55;1.40;;;;;;;;;;5019961;28;20037;-76
2023/04/28 09:54:53;;;;;;;16.08;1.67;;;;;;;;;;5038852;28;20040;-77
2023/04/28 09:57:21;;;;;;;9.35;1.70;;;;;;;;;;5032913;28;20025;-76
2023/04/28 09:59:48;;;;;;;7.47;2.08;;;;;;;;;;5019947;28;20035;-76
2023/04/28 10:02:15;;;;;;;8.13;2.05;;;;;;;;;;5037889;28;20041;-76
2023/04/28 10:04:45;;;;;;;7.20;1.90;;;;;;;;;;5025031;28;20055;-76
2023/04/28 10:07:15;;;;;;;6.03;1.75;;;;;;;;;;5022282;28;20086;-76
2023/04/28 10:09:43;;;;;;;14.30;2.65;;;;;;;;;;5036281;28;20044;-76
2023/04/28 10:12:12;;;;;;;7.78;1.83;;;;;;;;;;5021482;28;20502;-77
2023/04/28 10:14:39;;;;;;;5.78;1.60;;;;;;;;;;5033032;28;20028;-76
2023/04/28 10:17:05;;;;;;;8.77;1.80;;;;;;;;;;5041288;28;20127;-76
2023/04/28 10:19:32;;;;;;;6.80;1.70;;;;;;;;;;5033893;28;20036;-75
2023/04/28 10:22:08;;;;;;;5.90;1.73;;;;;;;;;;5035985;28;20036;-75
2023/04/28 10:24:45;;;;;;;5.45;1.60;;;;;;;;;;5035263;28;20035;-75
2023/04/28 10:27:11;;;;;;;11.35;1.90;;;;;;;;;;5038884;28;20064;-76
2023/04/28 10:29:37;;;;;;;14.52;2.80;;;;;;;;;;5033757;28;20098;-75
2023/04/28 10:32:17;;;;;;;8.63;1.67;;;;;;;;;;5020056;28;20036;-76
2023/04/28 10:34:43;;;;;;;6.20;1.70;;;;;;;;;;5033102;28;20558;-76
2023/04/28 10:37:09;;;;;;;7.35;1.90;;;;;;;;;;5038558;28;20033;-76
2023/04/28 10:39:36;;;;;;;7.60;1.63;;;;;;;;;;5035718;28;20029;-76
2023/04/28 10:42:02;;;;;;;7.20;1.63;;;;;;;;;;5024712;28;20463;-76
2023/04/28 10:44:29;;;;;;;8.10;1.98;;;;;;;;;;5034868;28;20024;-77
2023/04/28 10:47:06;;;;;;;7.30;1.60;;;;;;;;;;5023226;28;20113;-75
2023/04/28 10:50:11;;;;;;;7.78;1.52;;;;;;;;;;5020142;28;20033;-75
2023/04/28 10:52:37;;;;;;;6.70;1.50;;;;;;;;;;4954497;28;20042;-76
2023/04/28 10:55:22;;;;;;;7.03;1.50;;;;;;;;;;4957235;28;20243;-76
2023/04/28 10:58:08;;;;;;;6.60;1.30;;;;;;;;;;4949737;28;20066;-76
2023/04/28 11:00:34;;;;;;;5.32;1.30;;;;;;;;;;4953895;28;20802;-76
2023/04/28 11:03:00;;;;;;;4.72;1.10;;;;;;;;;;4939746;28;20393;-77
2023/04/28 11:05:27;;;;;;;4.38;1.15;;;;;;;;;;4951864;28;20615;-76
2023/04/28 11:08:12;;;;;;;8.07;1.30;;;;;;;;;;4954190;28;20475;-77
2023/04/28 11:10:56;;;;;;;7.67;1.10;;;;;;;;;;4935733;28;20574;-76
2023/04/28 11:13:33;;;;;;;3.30;0.75;;;;;;;;;;4941907;28;20124;-76
2023/04/28 11:18:42;;;;;;;6.57;1.17;;;;;;;;;;5385132;22;20057;-69
2023/04/28 11:21:09;;;;;;;6.20;1.10;;;;;;;;;;5020584;28;20029;-69
2023/04/28 11:23:35;;;;;;;9.00;1.30;;;;;;;;;;5015065;28;20029;-69
2023/04/28 11:26:01;;;;;;;7.95;1.33;;;;;;;;;;5021743;28;20683;-69
2023/04/28 11:28:27;;;;;;;6.40;1.15;;;;;;;;;;5018997;28;20366;-68
2023/04/28 11:31:10;;;;;;;8.80;1.10;;;;;;;;;;5018752;28;20091;-68
2023/04/28 11:33:37;;;;;;;4.38;1.10;;;;;;;;;;5024067;28;20089;-70
2023/04/28 11:36:03;;;;;;;5.47;1.17;;;;;;;;;;5006349;28;20085;-68
2023/04/28 11:38:29;;;;;;;7.30;1.13;;;;;;;;;;5019914;28;20021;-68
2023/04/28 11:40:59;;;;;;;9.45;1.70;;;;;;;;;;5020794;28;20525;-69
2023/04/28 11:43:29;;;;;;;10.07;1.60;;;;;;;;;;5024424;28;20517;-69
2023/04/28 11:45:56;;;;;;;9.43;1.45;;;;;;;;;;5025316;28;20037;-68
2023/04/28 11:48:22;;;;;;;8.80;1.30;;;;;;;;;;5027465;28;20025;-69
2023/04/28 11:50:48;;;;;;;5.75;1.38;;;;;;;;;;5007114;28;20044;-69
2023/04/28 11:53:15;;;;;;;5.75;1.50;;;;;;;;;;5025786;28;20025;-69
2023/04/28 11:55:41;;;;;;;4.88;1.23;;;;;;;;;;5006124;28;20060;-68
2023/04/28 11:58:24;;;;;;;7.32;1.27;;;;;;;;;;5024644;28;20036;-69
2023/04/28 12:01:08;;;;;;;8.13;1.38;;;;;;;;;;5019064;28;20414;-69
2023/04/28 12:03:43;;;;;;;5.67;1.17;;;;;;;;;;5024262;28;20445;-69
2023/04/28 12:06:09;;;;;;;7.68;1.00;;;;;;;;;;5021531;28;20039;-70
2023/04/28 12:08:35;;;;;;;6.05;1.38;;;;;;;;;;5020408;28;20501;-70
2023/04/28 12:11:12;;;;;;;7.03;1.33;;;;;;;;;;5023731;28;20148;-70
2023/04/28 12:13:38;;;;;;;7.18;1.48;;;;;;;;;;5005024;28;20105;-68
2023/04/28 12:16:05;;;;;;;16.98;1.60;;;;;;;;;;5008066;28;20648;-68
2023/04/28 12:18:35;;;;;;;5.05;1.15;;;;;;;;;;5006693;28;20219;-70
2023/04/28 12:21:02;;;;;;;11.18;1.83;;;;;;;;;;5022015;28;20037;-69
2023/04/28 12:23:30;;;;;;;11.30;1.58;;;;;;;;;;5022729;28;20308;-69
2023/04/28 12:25:57;;;;;;;8.57;1.50;;;;;;;;;;5024831;28;20041;-69
2023/04/28 12:28:26;;;;;;;11.93;1.63;;;;;;;;;;5026688;28;20205;-69
2023/04/28 12:31:03;;;;;;;27.55;2.90;;;;;;;;;;5027919;28;20044;-69
2023/04/28 12:33:29;;;;;;;18.77;2.25;;;;;;;;;;5024420;28;20095;-68
2023/04/28 12:35:56;;;;;;;9.27;1.58;;;;;;;;;;5023341;28;20029;-68
2023/04/28 12:38:25;;;;;;;5.68;1.20;;;;;;;;;;5023962;28;20032;-68
2023/04/28 12:40:51;;;;;;;4.40;1.13;;;;;;;;;;5028028;28;20049;-69
2023/04/28 12:43:17;;;;;;;4.75;1.10;;;;;;;;;;5023481;28;20025;-69
2023/04/28 12:45:44;;;;;;;9.32;1.33;;;;;;;;;;5025468;28;20036;-69
2023/04/28 12:48:10;;;;;;;6.35;1.20;;;;;;;;;;5023328;28;20040;-70
2023/04/28 12:50:36;;;;;;;6.40;1.42;;;;;;;;;;5022611;28;20447;-69
2023/04/28 12:53:02;;;;;;;5.78;1.08;;;;;;;;;;5019968;28;20479;-69
2023/04/28 12:55:29;;;;;;;5.03;1.30;;;;;;;;;;5019376;28;21235;-68
2023/04/28 12:57:55;;;;;;;11.38;1.30;;;;;;;;;;5027984;28;20994;-70
2023/04/28 13:00:23;;;;;;;8.88;2.15;;;;;;;;;;5021829;28;20025;-70
2023/04/28 13:02:50;;;;;;;11.20;1.50;;;;;;;;;;5003094;28;20096;-70
2023/04/28 13:05:18;;;;;;;6.45;1.23;;;;;;;;;;5021363;28;20093;-69
2023/04/28 13:07:44;;;;;;;7.78;1.55;;;;;;;;;;5003545;28;20032;-69
2023/04/28 13:10:11;;;;;;;5.65;1.27;;;;;;;;;;5004386;28;20044;-70
2023/04/28 13:12:37;;;;;;;8.57;1.33;;;;;;;;;;5016997;28;20107;-69
2023/04/28 13:15:04;;;;;;;11.90;1.17;;;;;;;;;;5016352;28;20378;-69
2023/04/28 13:17:30;;;;;;;7.07;1.35;;;;;;;;;;5012243;28;20052;-69
2023/04/28 13:19:56;;;;;;;8.13;1.42;;;;;;;;;;5015825;28;20474;-69
2023/04/28 13:22:22;;;;;;;12.63;1.45;;;;;;;;;;5017361;28;20028;-68
2023/04/28 13:24:48;;;;;;;6.38;1.25;;;;;;;;;;5011747;28;20035;-68
2023/04/28 13:27:14;;;;;;;7.82;1.50;;;;;;;;;;5017467;28;20025;-69
2023/04/28 13:29:41;;;;;;;6.82;1.38;;;;;;;;;;5016636;28;20502;-69
2023/04/28 13:32:07;;;;;;;7.70;1.50;;;;;;;;;;5001604;28;20036;-70
2023/04/28 13:34:34;;;;;;;7.68;1.42;;;;;;;;;;5017004;28;20128;-68
2023/04/28 13:37:00;;;;;;;3.95;1.20;;;;;;;;;;5017430;28;20175;-69
2023/04/28 13:39:26;;;;;;;12.95;2.47;;;;;;;;;;5022924;28;20672;-70
2023/04/28 13:41:52;;;;;;;7.53;1.45;;;;;;;;;;4999470;28;20025;-70
2023/04/28 13:44:18;;;;;;;6.28;1.17;;;;;;;;;;5013783;28;20036;-70
2023/04/28 13:46:45;;;;;;;7.45;1.38;;;;;;;;;;5015282;28;20115;-70
2023/04/28 13:49:11;;;;;;;5.93;1.33;;;;;;;;;;5018601;28;20447;-69
2023/04/28 13:51:37;;;;;;;4.75;1.25;;;;;;;;;;5012827;28;20035;-69
2023/04/28 13:54:07;;;;;;;6.53;1.23;;;;;;;;;;5000763;28;20033;-69
2023/04/28 13:56:33;;;;;;;5.57;1.17;;;;;;;;;;5012575;28;20063;-70
2023/04/28 13:58:59;;;;;;;7.57;1.13;;;;;;;;;;5018527;28;20025;-69
2023/04/28 14:01:26;;;;;;;5.30;1.10;;;;;;;;;;5014209;28;20029;-70
2023/04/28 14:03:52;;;;;;;9.02;1.40;;;;;;;;;;5013441;28;20040;-70
2023/04/28 14:06:20;;;;;;;7.38;1.27;;;;;;;;;;5016867;28;20505;-70
2023/04/28 14:08:46;;;;;;;3.58;1.02;;;;;;;;;;5013088;28;20549;-70
2023/04/28 14:11:13;;;;;;;6.18;1.10;;;;;;;;;;5019190;28;20458;-70
2023/04/28 14:13:39;;;;;;;6.28;1.20;;;;;;;;;;5014128;28;20562;-70
2023/04/28 14:16:06;;;;;;;9.70;1.20;;;;;;;;;;5015220;28;20482;-69
2023/04/28 14:18:33;;;;;;;3.70;0.85;;;;;;;;;;5011225;28;20060;-69
2023/04/28 14:21:00;;;;;;;8.30;1.13;;;;;;;;;;5018355;28;20031;-69
2023/04/28 14:23:27;;;;;;;7.57;1.23;;;;;;;;;;5014454;28;20033;-69
2023/04/28 14:25:54;;;;;;;8.90;1.40;;;;;;;;;;5015748;28;20024;-69
2023/04/28 14:28:21;;;;;;;6.82;1.05;;;;;;;;;;5016374;28;20050;-71
2023/04/28 14:30:48;;;;;;;4.50;0.85;;;;;;;;;;4998880;28;20033;-69
2023/04/28 14:33:14;;;;;;;7.00;1.08;;;;;;;;;;5013658;28;20035;-70
2023/04/28 14:35:41;;;;;;;7.00;1.17;;;;;;;;;;5012413;28;20514;-70
2023/04/28 14:38:07;;;;;;;5.45;0.82;;;;;;;;;;5017785;28;20458;-70
2023/04/28 14:40:33;;;;;;;9.30;1.33;;;;;;;;;;5015601;28;20432;-70
2023/04/28 14:43:00;;;;;;;3.45;0.90;;;;;;;;;;5018156;28;20037;-70
2023/04/28 14:45:26;;;;;;;4.85;1.10;;;;;;;;;;5019803;28;20108;-70